Astoria, Oregon
Current Conditions -  °F | °C
As of 7:55 AM on Thursday 30 Oct 2014 (Local Time) from KAST Reporting Station
Overcast Overcast  
Wind Chill: 58°   Ceiling: 2600
Heat Index: 58°   Visibility: 10mi
Dew Point: 55°   Wind: 5mph
Humidity: 90%   Direction: 100°E
Pressure: 29.82"   Gusts: NA
Location:  46.19°N, 123.83°W
Report Text: KAST 301455Z AUTO 10004KT 10SM OVC026 14/13 A2982 RMK AO2 RAE33 SLP097 P0005 60014 T01440128 56006
Loading
Personal Weather Stations






























Interactive Weather Map
Tropical Storm Tracking
New forecast layout! Learn more

10-Day Weather Forecast

Advertisements
Track Severe Weather on mobile